Flight Track Log - Related Links

Times and Time Zones

All times are in EDT time to prevent confusion due to time zone crossing. See the N23139 flight status page for this flight to view local times or setup timezone preferences in your user account.

Time Position Orientation Groundspeed Altitude Reporting Facility
EDT Latitude Longitude Course Direction KTS MPH feet Rate Location/Type
Sun 02:14:42 PM 26.1894 -98.2528 24° Northeast 130 150 700  Level Houston Center
Sun 02:15:31 PM 26.2161 -98.2472 11° North 147 169 2,300 2,096 Climbing Houston Center
Sun 02:16:05 PM 26.2378 -98.2214 47° Northeast 176 203 3,600 2,200 Climbing Houston Center
Sun 02:16:31 PM 26.2592 -98.2158 13° North 208 239 4,500 2,000 Climbing Houston Center
Sun 02:17:08 PM 26.2975 -98.2328 338° Northwest 235 270 5,700 2,361 Climbing Houston Center
Sun 02:17:32 PM 26.3264 -98.2539 327° Northwest 271 312 6,900 2,419 Climbing Houston Center
Sun 02:18:00 PM 26.4231 -98.1134 24° Northeast  Level FlightAware Approximate
Sun 02:18:10 PM 26.3681 -98.2778 333° Northwest 268 308 8,200  Level Houston Center
Sun 02:19:00 PM 26.4866 -98.0817 24° Northeast  Level FlightAware Approximate
Sun 02:19:12 PM 26.4531 -98.2675 North 299 344 10,800  Level Houston Center
Sun 02:20:14 PM 26.5436 -98.2522 North 321 369 12,600 1,742 Climbing Houston Center
Sun 02:21:16 PM 26.6525 -98.2300 10° North 358 412 14,400 1,839 Climbing Houston Center
Sun 02:22:18 PM 26.7547 -98.1950 17° North 378 435 16,400 1,839 Climbing Houston Center
Sun 02:23:20 PM 26.8483 -98.1347 30° Northeast 383 441 18,200 1,694 Climbing Houston Center
Sun 02:24:22 PM 26.9317 -98.0803 30° Northeast 387 445 19,900 1,839 Climbing Houston Center
Sun 02:25:24 PM 27.0411 -98.0044 32° Northeast 388 447 22,000 1,728 Climbing Houston Center
Sun 02:26:27 PM 27.1350 -97.9361 33° Northeast 400 460 23,500 1,392 Climbing Houston Center
Sun 02:27:29 PM 27.2303 -97.8686 32° Northeast 406 467 24,900 726 Climbing Houston Center
Sun 02:28:31 PM 27.3297 -97.7964 33° Northeast 422 486 25,000 48 Climbing Houston Center
Sun 02:29:33 PM 27.4394 -97.7189 32° Northeast 461 531 25,000 -48 Level Houston Center
Sun 02:30:35 PM 27.5742 -97.6219 33° Northeast 478 550 24,900  Descending Houston Center
Sun 02:31:37 PM 27.6789 -97.5453 33° Northeast 454 522 25,000 48 Climbing Houston Center
Sun 02:32:39 PM 27.7828 -97.4700 33° Northeast 446 513 25,000  Level Houston Center
Sun 02:33:41 PM 27.8925 -97.3922 32° Northeast 460 529 25,000  Level Houston Center
Sun 02:34:43 PM 28.0161 -97.3028 33° Northeast 467 537 25,000  Level Houston Center
Sun 02:35:46 PM 28.1269 -97.2217 33° Northeast 473 544 25,000  Level Houston Center
Sun 02:36:48 PM 28.2386 -97.1389 33° Northeast 478 550 25,000  Level Houston Center
Sun 02:37:50 PM 28.3508 -97.0569 33° Northeast 481 554 25,000 -290 Level Houston Center
Sun 02:38:52 PM 28.4619 -96.9758 33° Northeast 475 547 24,400 -480 Descending Houston Center
Sun 02:39:55 PM 28.5831 -96.8875 33° Northeast 441 507 24,000 -194 Descending Houston Center
Sun 02:40:56 PM 28.6858 -96.8103 33° Northeast 440 506 24,000  Level Houston Center
Sun 02:41:58 PM 28.7861 -96.7364 33° Northeast 435 501 24,000  Level Houston Center
Sun 02:43:00 PM 28.8858 -96.6617 33° Northeast 432 497 24,000 -435 Level Houston Center
Sun 02:44:02 PM 28.9856 -96.5878 33° Northeast 430 495 23,100 -1,344 Descending Houston Center
Sun 02:45:05 PM 29.0992 -96.5019 33° Northeast 416 479 21,200 -2,064 Descending Houston Center
Sun 02:46:07 PM 29.1856 -96.4378 33° Northeast 384 442 18,800 -2,411 Descending Houston Center
Sun 02:46:52 PM 29.2539 -96.3883 32° Northeast 373 429 16,900 -2,323 Descending Houston Center
Sun 02:47:09 PM 29.2714 -96.3736 36° Northeast 374 430 16,400 -2,516 Descending Houston Center
Sun 02:47:54 PM 29.3447 -96.3208 32° Northeast 360 414 14,300 -2,419 Descending Houston Center
Sun 02:48:11 PM 29.3544 -96.3119 39° Northeast 362 417 13,900 -2,459 Descending Houston Center
Sun 02:48:55 PM 29.4256 -96.2592 33° Northeast 347 399 11,800 -2,323 Descending Houston Center
Sun 02:49:13 PM 29.4344 -96.2519 35° Northeast 349 402 11,500 -1,672 Descending Houston Center
Sun 02:49:56 PM 29.5044 -96.2000 33° Northeast 339 390 10,100 -1,452 Descending Houston Center
Sun 02:50:15 PM 29.5292 -96.1789 37° Northeast 343 395 10,000 -358 Descending Houston Center
Sun 02:51:03 PM 29.5725 -96.1133 53° Northeast 305 351 9,700 -550 Descending Houston Center
Sun 02:52:04 PM 29.6119 -96.0344 60° Northeast 274 315 9,000 -553 Descending Houston Center
Sun 02:52:19 PM 29.6183 -96.0233 57° Northeast 280 322 9,000 -1,180 Level Houston Center
Sun 02:53:05 PM 29.6517 -95.9603 59° Northeast 264 304 7,800 -1,258 Descending Houston Center
Sun 02:53:21 PM 29.6547 -95.9539 61° Northeast 269 310 7,700 -750 Descending Houston Center
Sun 02:54:01 PM 29.7111 -95.9219 26° Northeast 264 304 7,100 -667 Descending Houston Center
Sun 02:54:24 PM 29.7333 -95.9072 30° Northeast 262 302 7,000  Descending Houston Center
Sun 02:55:02 PM 29.7719 -95.8742 37° Northeast 269 310 7,100  Climbing Houston Center
Sun 02:55:26 PM 29.7942 -95.8575 33° Northeast 267 307 7,000 -97 Descending Houston Center
Sun 02:56:04 PM 29.8367 -95.8211 37° Northeast 271 312 7,000 -387 Level Houston Center
Sun 02:56:28 PM 29.8536 -95.8028 43° Northeast 271 312 6,600 -1,180 Descending Houston Center
Sun 02:57:05 PM 29.8900 -95.7594 46° Northeast 274 315 5,800 -1,161 Descending Houston Center
Sun 02:57:30 PM 29.9067 -95.7394 46° Northeast 274 315 5,400 -1,065 Descending Houston Center
Sun 02:58:07 PM 29.9339 -95.6869 59° Northeast 277 319 4,700 -968 Descending Houston Center
Sun 02:58:32 PM 29.9458 -95.6636 59° Northeast 276 318 4,400 -984 Descending Houston Center
Sun 02:59:08 PM 29.9689 -95.6081 64° Northeast 271 312 3,700 -968 Descending Houston Center
Sun 02:59:34 PM 29.9792 -95.5856 62° Northeast 272 313 3,400 -689 Descending Houston Center
Sun 03:00:09 PM 29.9931 -95.5256 75° East 252 290 3,000 -686 Descending Houston Center

Login

Don't have an account? Register now (free) for customized features, flight alerts, and more!